Time;durP1;ratioP1;P1;durP2;ratioP2;P2;SDS_P1;SDS_P2;PMS_P1;PMS_P2;Temp;Humidity;BMP_temperature;BMP_pressure;BME280_temperature;BME280_humidity;BME280_pressure;Samples;Min_cycle;Max_cycle;Signal;HPM_P1;HPM_P2
2022/06/10 00:01:14;;;;;;;1.17;0.80;;;25.50;45.80;;;;;;5057087;28;20507;-64
2022/06/10 00:03:40;;;;;;;1.42;0.80;;;25.50;45.80;;;;;;5057995;28;20108;-66
2022/06/10 00:06:08;;;;;;;1.55;0.73;;;25.50;46.40;;;;;;5057283;28;20119;-62
2022/06/10 00:08:41;;;;;;;1.38;0.70;;;25.50;45.80;;;;;;5056588;28;20032;-64
2022/06/10 00:11:10;;;;;;;1.30;0.70;;;25.40;45.80;;;;;;5057422;28;20147;-62
2022/06/10 00:13:38;;;;;;;1.10;0.63;;;25.40;45.80;;;;;;5057101;28;20620;-62
2022/06/10 00:16:05;;;;;;;1.85;0.80;;;25.40;45.80;;;;;;5056467;28;20115;-62
2022/06/10 00:18:32;;;;;;;1.58;0.80;;;25.40;45.80;;;;;;5056094;28;20109;-64
2022/06/10 00:20:58;;;;;;;1.27;0.80;;;25.40;45.90;;;;;;5058625;28;20032;-61
2022/06/10 00:23:24;;;;;;;1.13;0.70;;;25.40;45.90;;;;;;5053757;28;20110;-64
2022/06/10 00:25:50;;;;;;;0.95;0.65;;;25.40;45.90;;;;;;5057972;28;20032;-64
2022/06/10 00:28:16;;;;;;;1.17;0.70;;;25.40;45.90;;;;;;5057303;28;20160;-62
2022/06/10 00:30:42;;;;;;;0.90;0.60;;;25.40;45.90;;;;;;5055646;28;20330;-63
2022/06/10 00:33:08;;;;;;;1.55;0.80;;;25.30;45.90;;;;;;5054629;28;20028;-64
2022/06/10 00:35:34;;;;;;;1.58;0.88;;;25.30;45.90;;;;;;5055704;28;20671;-66
2022/06/10 00:38:01;;;;;;;0.80;0.60;;;25.30;46.00;;;;;;5055961;28;20192;-65
2022/06/10 00:40:30;;;;;;;1.48;0.77;;;25.30;46.00;;;;;;5056412;28;20020;-66
2022/06/10 00:42:56;;;;;;;0.93;0.60;;;25.30;46.00;;;;;;5056876;28;20184;-64
2022/06/10 00:45:53;;;;;;;0.90;0.70;;;25.30;46.00;;;;;;5056247;28;20036;-62
2022/06/10 00:48:37;;;;;;;0.70;0.50;;;25.30;46.00;;;;;;5055472;28;20043;-65
2022/06/10 00:51:16;;;;;;;1.10;0.70;;;25.20;46.00;;;;;;5056246;28;20033;-61
2022/06/10 00:53:43;;;;;;;1.58;0.80;;;25.20;46.00;;;;;;5052717;28;20047;-66
2022/06/10 00:56:16;;;;;;;1.30;0.70;;;25.20;46.00;;;;;;5056283;28;20436;-62
2022/06/10 00:58:45;;;;;;;0.60;0.57;;;25.20;46.10;;;;;;5057335;28;20067;-62
2022/06/10 01:01:13;;;;;;;1.75;0.82;;;25.20;46.10;;;;;;5056501;28;20028;-60
2022/06/10 01:03:41;;;;;;;1.00;0.70;;;25.20;46.20;;;;;;5056207;28;20127;-64
2022/06/10 01:06:07;;;;;;;1.65;0.70;;;25.10;46.10;;;;;;5055662;28;20040;-63
2022/06/10 01:08:33;;;;;;;1.15;0.70;;;25.10;46.10;;;;;;5054817;28;20685;-64
2022/06/10 01:11:16;;;;;;;1.05;0.60;;;25.10;46.20;;;;;;5055913;28;20035;-64
2022/06/10 01:14:10;;;;;;;1.33;0.60;;;25.10;46.20;;;;;;5055123;28;20024;-66
2022/06/10 01:16:35;;;;;;;0.80;0.57;;;25.10;46.20;;;;;;5055005;28;20048;-64
2022/06/10 01:19:39;;;;;;;1.25;0.70;;;25.10;46.20;;;;;;5055488;28;20020;-61
2022/06/10 01:22:32;;;;;;;0.50;0.50;;;25.10;46.30;;;;;;5002201;28;20043;-62
2022/06/10 01:25:35;;;;;;;1.33;0.70;;;25.10;46.30;;;;;;5053889;28;20067;-64
2022/06/10 01:28:07;;;;;;;1.25;0.60;;;25.10;46.30;;;;;;5060766;28;20016;-64
2022/06/10 01:31:01;;;;;;;0.93;0.70;;;25.10;46.30;;;;;;5060814;28;20028;-64
2022/06/10 01:33:43;;;;;;;0.77;0.50;;;25.00;46.30;;;;;;5059314;28;20028;-64
2022/06/10 01:36:24;;;;;;;0.93;0.60;;;25.00;46.30;;;;;;5058014;28;20452;-64
2022/06/10 01:38:58;;;;;;;0.95;0.50;;;25.00;46.30;;;;;;5056807;28;20025;-62
2022/06/10 01:41:44;;;;;;;0.95;0.70;;;25.00;46.40;;;;;;5059820;28;20025;-65
2022/06/10 01:44:28;;;;;;;0.70;0.55;;;25.00;46.40;;;;;;5059113;28;20055;-61
2022/06/10 01:47:18;;;;;;;0.60;0.60;;;25.00;46.40;;;;;;5061049;28;20028;-64
2022/06/10 01:50:06;;;;;;;0.70;0.60;;;25.00;46.40;;;;;;5060507;28;20111;-61
2022/06/10 01:52:50;;;;;;;0.40;0.40;;;25.00;46.40;;;;;;5059326;28;20152;-63
2022/06/10 01:55:22;;;;;;;1.10;0.60;;;24.90;46.40;;;;;;5057788;28;20071;-64
2022/06/10 01:58:03;;;;;;;0.73;0.60;;;24.90;46.50;;;;;;5058142;28;20055;-62
2022/06/10 02:00:34;;;;;;;0.50;0.50;;;24.90;46.50;;;;;;5058693;28;20044;-66
2022/06/10 02:03:15;;;;;;;1.73;0.60;;;24.90;46.50;;;;;;5060080;28;20043;-61
2022/06/10 02:05:59;;;;;;;0.50;0.50;;;24.90;46.50;;;;;;5059462;28;20155;-66
2022/06/10 02:08:33;;;;;;;0.65;0.50;;;24.90;46.50;;;;;;5058411;28;20028;-60
2022/06/10 02:11:05;;;;;;;0.85;0.60;;;24.90;46.50;;;;;;5058845;28;20040;-62
2022/06/10 02:13:48;;;;;;;0.95;0.68;;;24.90;46.50;;;;;;5059218;28;20051;-62
2022/06/10 02:16:18;;;;;;;0.68;0.50;;;24.90;46.60;;;;;;5058961;28;20048;-62
2022/06/10 02:18:51;;;;;;;0.50;0.50;;;24.80;46.50;;;;;;5059598;28;20495;-63
2022/06/10 02:21:49;;;;;;;0.70;0.50;;;24.80;46.50;;;;;;5058804;28;20031;-65
2022/06/10 02:24:40;;;;;;;0.93;0.50;;;24.80;46.60;;;;;;5056542;28;20156;-62
2022/06/10 02:27:18;;;;;;;0.52;0.50;;;24.80;46.60;;;;;;5061148;28;20032;-60
2022/06/10 02:30:08;;;;;;;1.10;0.60;;;24.80;46.60;;;;;;5059299;28;20028;-65
2022/06/10 02:32:35;;;;;;;0.82;0.60;;;24.80;46.60;;;;;;5058576;28;20037;-64
2022/06/10 02:35:01;;;;;;;0.60;0.60;;;24.80;46.70;;;;;;5058233;28;20031;-64
2022/06/10 02:37:27;;;;;;;0.65;0.50;;;24.80;46.70;;;;;;5056382;28;20392;-64
2022/06/10 02:40:11;;;;;;;0.73;0.52;;;24.80;46.70;;;;;;5056645;28;20017;-62
2022/06/10 02:43:14;;;;;;;0.63;0.55;;;24.80;46.70;;;;;;5057960;28;20174;-62
2022/06/10 02:45:53;;;;;;;0.73;0.50;;;24.70;46.70;;;;;;5058831;28;20033;-64
2022/06/10 02:48:40;;;;;;;0.68;0.60;;;24.80;46.70;;;;;;5058361;28;20028;-66
2022/06/10 02:51:06;;;;;;;0.57;0.57;;;24.70;46.70;;;;;;5058198;28;20036;-60
2022/06/10 02:53:32;;;;;;;0.55;0.50;;;24.70;46.80;;;;;;5057144;28;20036;-63
2022/06/10 02:55:58;;;;;;;0.55;0.50;;;24.70;46.70;;;;;;5057710;28;20039;-64
2022/06/10 03:01:34;;;;;;;0.40;0.40;;;24.70;46.80;;;;;;5059358;28;20031;-64
2022/06/10 03:04:06;;;;;;;0.60;0.60;;;24.70;46.80;;;;;;5057346;28;20028;-62
2022/06/10 03:06:43;;;;;;;0.50;0.50;;;24.70;46.80;;;;;;5057136;28;20527;-63
2022/06/10 03:09:50;;;;;;;0.55;0.40;;;24.70;46.90;;;;;;5054658;28;20028;-63
2022/06/10 03:12:34;;;;;;;0.88;0.50;;;24.60;46.80;;;;;;5058591;28;20123;-61
2022/06/10 03:15:05;;;;;;;0.45;0.40;;;24.70;46.90;;;;;;5057259;28;20028;-61
2022/06/10 03:17:31;;;;;;;0.70;0.57;;;24.70;46.90;;;;;;5059591;28;20036;-64
2022/06/10 03:20:08;;;;;;;0.50;0.50;;;24.60;46.90;;;;;;5057105;28;20043;-62
2022/06/10 03:22:54;;;;;;;0.77;0.50;;;24.70;46.90;;;;;;5056524;28;21141;-63
2022/06/10 03:25:21;;;;;;;0.60;0.57;;;24.60;46.90;;;;;;5056530;28;20037;-63
2022/06/10 03:27:49;;;;;;;0.73;0.52;;;24.60;46.90;;;;;;5057510;28;20428;-65
2022/06/10 03:30:21;;;;;;;0.80;0.55;;;24.60;46.90;;;;;;5057110;28;20038;-62
2022/06/10 03:32:46;;;;;;;0.73;0.57;;;24.60;46.90;;;;;;5058126;28;20028;-65
2022/06/10 03:35:27;;;;;;;0.88;0.60;;;24.60;47.00;;;;;;5057456;28;20374;-64
2022/06/10 03:37:54;;;;;;;0.60;0.50;;;24.60;47.00;;;;;;5055743;28;20028;-64
2022/06/10 03:40:27;;;;;;;0.60;0.60;;;24.60;47.00;;;;;;5057356;28;20028;-62
2022/06/10 03:42:55;;;;;;;0.73;0.57;;;24.50;47.50;;;;;;5059253;28;20035;-62
2022/06/10 03:45:24;;;;;;;0.88;0.57;;;24.50;47.00;;;;;;5057948;28;20111;-64
2022/06/10 03:47:50;;;;;;;0.82;0.50;;;24.50;47.00;;;;;;5057899;28;20464;-64
2022/06/10 03:50:22;;;;;;;0.80;0.40;;;24.50;47.00;;;;;;5054263;28;20033;-65
2022/06/10 03:52:48;;;;;;;0.63;0.45;;;24.50;47.00;;;;;;5056826;28;20028;-63
2022/06/10 03:55:17;;;;;;;0.70;0.50;;;24.50;47.10;;;;;;5038051;28;20040;-64
2022/06/10 03:57:43;;;;;;;0.52;0.52;;;24.50;47.10;;;;;;5038778;28;20040;-63
2022/06/10 04:00:18;;;;;;;0.55;0.55;;;24.50;47.10;;;;;;5056030;28;20687;-64
2022/06/10 04:02:44;;;;;;;0.60;0.60;;;24.50;47.10;;;;;;5058054;28;20035;-65
2022/06/10 04:05:11;;;;;;;0.50;0.50;;;24.50;47.10;;;;;;5055386;28;20036;-62
2022/06/10 04:07:38;;;;;;;0.73;0.55;;;24.50;47.10;;;;;;5055276;28;20032;-64
2022/06/10 04:10:05;;;;;;;0.50;0.50;;;24.50;47.10;;;;;;5054522;28;20053;-66
2022/06/10 04:12:31;;;;;;;0.52;0.40;;;24.50;47.20;;;;;;5055868;28;20032;-64
2022/06/10 04:14:56;;;;;;;1.08;0.65;;;24.50;47.10;;;;;;5056021;28;20035;-65
2022/06/10 04:17:22;;;;;;;0.80;0.50;;;24.50;47.10;;;;;;5056161;28;20021;-63
2022/06/10 04:19:48;;;;;;;0.60;0.50;;;24.50;47.10;;;;;;5055624;28;20028;-63
2022/06/10 04:22:13;;;;;;;0.50;0.50;;;24.50;47.70;;;;;;5057658;28;20028;-63
2022/06/10 04:24:39;;;;;;;0.40;0.40;;;24.50;47.20;;;;;;5054366;28;20129;-61
2022/06/10 04:27:05;;;;;;;0.60;0.50;;;24.40;47.20;;;;;;5056723;28;20025;-63
2022/06/10 04:29:30;;;;;;;0.70;0.60;;;24.40;47.20;;;;;;5056246;28;20024;-61
2022/06/10 04:31:56;;;;;;;0.57;0.47;;;24.40;47.20;;;;;;5057548;28;20036;-64
2022/06/10 04:34:22;;;;;;;0.55;0.50;;;24.40;47.20;;;;;;5056039;28;20084;-62
2022/06/10 04:36:47;;;;;;;0.70;0.50;;;24.40;47.20;;;;;;5056757;28;20528;-60
2022/06/10 04:39:13;;;;;;;0.88;0.40;;;24.40;47.20;;;;;;5053183;28;20103;-61
2022/06/10 04:41:39;;;;;;;0.90;0.55;;;24.40;47.20;;;;;;5056659;28;20036;-65
2022/06/10 04:44:05;;;;;;;1.33;0.50;;;24.40;47.20;;;;;;5054850;28;21890;-65
2022/06/10 04:46:36;;;;;;;0.80;0.60;;;24.40;47.30;;;;;;5058065;28;20067;-64
2022/06/10 04:49:02;;;;;;;0.55;0.52;;;24.40;47.80;;;;;;5055833;28;20028;-65
2022/06/10 04:51:28;;;;;;;0.80;0.50;;;24.40;47.30;;;;;;5057253;28;20032;-60
2022/06/10 04:53:53;;;;;;;0.90;0.60;;;24.40;47.30;;;;;;5053930;28;20024;-63
2022/06/10 04:56:20;;;;;;;1.10;0.60;;;24.40;47.30;;;;;;5055213;28;20541;-65
2022/06/10 04:58:45;;;;;;;0.50;0.50;;;24.30;47.30;;;;;;5056719;28;20053;-64
2022/06/10 05:01:11;;;;;;;0.55;0.55;;;24.30;47.30;;;;;;5057929;28;20031;-64
2022/06/10 05:03:37;;;;;;;0.70;0.60;;;24.30;47.30;;;;;;5058024;28;20170;-65
2022/06/10 05:06:04;;;;;;;0.68;0.60;;;24.30;47.30;;;;;;5037969;28;20032;-63
2022/06/10 05:08:29;;;;;;;0.50;0.50;;;24.30;47.30;;;;;;5054443;28;20064;-62
2022/06/10 05:10:55;;;;;;;0.50;0.50;;;24.30;47.30;;;;;;5056447;28;20060;-66
2022/06/10 05:13:21;;;;;;;0.47;0.47;;;24.30;47.30;;;;;;5055559;28;20029;-65
2022/06/10 05:15:48;;;;;;;0.50;0.50;;;24.30;47.40;;;;;;5054855;28;20033;-64
2022/06/10 05:18:20;;;;;;;0.45;0.40;;;24.30;47.40;;;;;;5056726;28;20020;-63
2022/06/10 05:20:46;;;;;;;0.40;0.40;;;24.30;47.40;;;;;;5055720;28;20036;-64
2022/06/10 05:23:14;;;;;;;0.60;0.43;;;24.30;47.40;;;;;;5054786;28;20481;-65
2022/06/10 05:25:41;;;;;;;0.93;0.50;;;24.30;47.40;;;;;;5055586;28;20048;-62
2022/06/10 05:28:07;;;;;;;0.55;0.40;;;24.30;47.40;;;;;;5056770;28;20103;-63
2022/06/10 05:30:34;;;;;;;0.95;0.60;;;24.30;47.40;;;;;;5055248;28;20049;-64
2022/06/10 05:33:02;;;;;;;0.52;0.52;;;24.30;47.40;;;;;;5055022;28;20029;-66
2022/06/10 05:35:28;;;;;;;0.60;0.47;;;24.30;47.40;;;;;;5055868;28;20050;-63
2022/06/10 05:37:54;;;;;;;0.70;0.60;;;24.30;47.40;;;;;;5055228;28;20043;-60
2022/06/10 05:40:23;;;;;;;0.63;0.60;;;24.30;47.50;;;;;;5055132;28;20017;-66
2022/06/10 05:42:49;;;;;;;0.50;0.50;;;24.30;47.50;;;;;;5055160;28;20574;-62
2022/06/10 05:45:17;;;;;;;0.80;0.60;;;24.30;47.50;;;;;;5055379;28;20051;-64
2022/06/10 05:47:44;;;;;;;0.60;0.60;;;24.20;47.40;;;;;;5055921;28;20028;-63
2022/06/10 05:50:20;;;;;;;0.40;0.40;;;24.20;47.40;;;;;;5053154;28;20350;-64
2022/06/10 05:52:46;;;;;;;0.85;0.60;;;24.20;47.40;;;;;;5054416;28;20059;-64
2022/06/10 05:55:12;;;;;;;0.98;0.60;;;24.20;47.40;;;;;;5054335;28;20542;-64
2022/06/10 05:57:39;;;;;;;0.63;0.50;;;24.20;47.40;;;;;;5054383;28;20040;-64
2022/06/10 06:00:13;;;;;;;0.65;0.55;;;24.20;47.40;;;;;;5037928;28;20036;-64
2022/06/10 06:02:41;;;;;;;0.50;0.50;;;24.20;47.40;;;;;;5053497;28;20082;-62
2022/06/10 06:05:08;;;;;;;1.30;0.70;;;24.20;47.30;;;;;;5054126;28;20059;-62
2022/06/10 06:07:34;;;;;;;1.60;1.00;;;24.20;46.80;;;;;;5054395;28;20020;-63
2022/06/10 06:10:00;;;;;;;1.83;1.00;;;23.90;45.50;;;;;;5053742;28;20122;-64
2022/06/10 06:12:26;;;;;;;2.10;1.00;;;23.70;45.90;;;;;;5052832;28;20059;-63
2022/06/10 06:14:51;;;;;;;2.33;1.10;;;23.70;46.50;;;;;;5058764;28;20024;-62
2022/06/10 06:17:21;;;;;;;1.63;1.10;;;23.60;46.10;;;;;;5056803;28;20027;-62
2022/06/10 06:19:47;;;;;;;3.35;1.38;;;23.40;46.20;;;;;;5059372;28;20104;-60
2022/06/10 06:22:13;;;;;;;4.00;1.40;;;23.40;46.30;;;;;;5059238;28;20028;-64
2022/06/10 06:24:39;;;;;;;2.95;1.42;;;23.20;46.50;;;;;;5057951;28;20545;-66
2022/06/10 06:27:06;;;;;;;2.75;1.27;;;23.20;46.50;;;;;;5060320;28;20703;-63
2022/06/10 06:29:32;;;;;;;2.35;1.00;;;23.20;46.60;;;;;;5042771;28;20169;-60
2022/06/10 06:31:58;;;;;;;2.22;1.00;;;23.10;46.80;;;;;;5061095;28;20134;-66
2022/06/10 06:34:25;;;;;;;3.10;1.10;;;23.20;46.90;;;;;;5040735;28;20124;-65
2022/06/10 06:36:53;;;;;;;2.50;1.30;;;23.10;46.40;;;;;;5052407;28;20134;-62
2022/06/10 06:39:21;;;;;;;3.55;1.38;;;23.10;46.40;;;;;;5057241;28;20189;-65
2022/06/10 06:41:47;;;;;;;1.77;0.93;;;23.00;46.40;;;;;;5059111;28;20024;-65
2022/06/10 06:44:13;;;;;;;1.90;0.90;;;23.10;46.80;;;;;;5059845;28;20052;-63
2022/06/10 06:46:41;;;;;;;2.75;1.05;;;23.10;46.60;;;;;;5056064;28;20055;-61
2022/06/10 06:49:09;;;;;;;2.42;1.10;;;23.10;46.60;;;;;;5056045;28;20543;-63
2022/06/10 06:51:36;;;;;;;3.05;1.25;;;23.20;46.60;;;;;;5059501;28;20047;-62
2022/06/10 06:54:01;;;;;;;2.72;1.25;;;23.10;46.40;;;;;;5057179;28;20110;-62
2022/06/10 06:56:28;;;;;;;2.60;1.30;;;23.00;46.80;;;;;;5057554;28;20032;-64
2022/06/10 06:58:55;;;;;;;3.10;1.40;;;23.00;46.50;;;;;;5060589;28;20465;-61
2022/06/10 07:01:21;;;;;;;3.13;1.40;;;22.90;46.90;;;;;;5058510;28;20085;-63
2022/06/10 07:03:46;;;;;;;3.10;1.40;;;22.80;46.50;;;;;;5058163;28;20031;-62
2022/06/10 07:06:12;;;;;;;2.90;1.40;;;22.70;47.00;;;;;;5056828;28;20044;-65
2022/06/10 07:08:38;;;;;;;2.53;1.10;;;22.50;47.50;;;;;;5057282;28;20388;-62
2022/06/10 07:11:06;;;;;;;3.28;1.00;;;22.60;47.60;;;;;;5059902;28;20396;-60
2022/06/10 07:13:33;;;;;;;1.77;1.08;;;22.70;47.40;;;;;;5059096;28;20032;-60
2022/06/10 07:16:00;;;;;;;1.55;0.80;;;22.80;47.30;;;;;;5057786;28;20032;-65
2022/06/10 07:18:27;;;;;;;1.50;0.82;;;22.90;47.20;;;;;;5058386;28;20104;-63
2022/06/10 07:20:52;;;;;;;1.52;0.75;;;22.90;47.10;;;;;;5058086;28;20036;-61
2022/06/10 07:23:19;;;;;;;1.65;0.70;;;22.90;47.00;;;;;;5056819;28;20040;-61
2022/06/10 07:25:46;;;;;;;1.20;0.70;;;23.00;47.00;;;;;;5041852;28;20439;-65
2022/06/10 07:28:13;;;;;;;2.00;0.90;;;23.10;47.00;;;;;;5039138;28;20377;-62
2022/06/10 07:30:40;;;;;;;1.95;0.80;;;23.10;47.00;;;;;;5057904;28;20638;-65
2022/06/10 07:33:07;;;;;;;1.52;0.80;;;23.10;46.90;;;;;;5053580;28;20380;-63
2022/06/10 07:35:33;;;;;;;1.25;0.65;;;23.10;47.00;;;;;;5057651;28;20025;-67
2022/06/10 07:37:58;;;;;;;2.15;0.80;;;23.10;46.90;;;;;;5055442;28;20024;-62
2022/06/10 07:43:22;;;;;;;1.13;0.60;;;23.20;46.90;;;;;;5055818;28;20162;-64
2022/06/10 07:45:48;;;;;;;0.88;0.63;;;23.20;46.90;;;;;;5055826;28;20076;-61
2022/06/10 07:48:14;;;;;;;1.67;0.77;;;23.20;46.90;;;;;;5058029;28;20029;-63
2022/06/10 07:50:42;;;;;;;1.33;0.80;;;23.20;47.00;;;;;;5039676;28;20165;-64
2022/06/10 07:53:09;;;;;;;1.45;0.73;;;23.20;47.00;;;;;;5047496;28;20041;-63
2022/06/10 07:55:36;;;;;;;0.80;0.60;;;23.20;47.00;;;;;;5038558;28;20025;-65
2022/06/10 07:58:01;;;;;;;1.10;0.70;;;23.20;47.00;;;;;;5056480;28;20107;-66
2022/06/10 08:00:27;;;;;;;0.95;0.70;;;23.30;47.10;;;;;;5056728;28;20123;-62
2022/06/10 08:02:53;;;;;;;2.08;0.80;;;23.30;47.10;;;;;;5057142;28;20054;-64
2022/06/10 08:05:19;;;;;;;2.10;0.80;;;23.20;47.10;;;;;;5059300;28;20028;-62
2022/06/10 08:07:46;;;;;;;0.90;0.60;;;23.20;47.10;;;;;;5055289;28;20089;-65
2022/06/10 08:10:31;;;;;;;2.00;0.65;;;23.20;47.10;;;;;;5056094;28;20123;-63
2022/06/10 08:12:57;;;;;;;1.10;0.70;;;23.20;47.20;;;;;;5054728;28;20024;-63
2022/06/10 08:15:23;;;;;;;1.38;0.60;;;23.20;47.20;;;;;;5054120;28;20032;-60
2022/06/10 08:17:50;;;;;;;1.23;0.77;;;23.20;47.20;;;;;;5058800;28;20036;-64
2022/06/10 08:20:23;;;;;;;0.80;0.60;;;23.20;47.20;;;;;;5055805;28;20040;-65
2022/06/10 08:22:49;;;;;;;1.10;0.60;;;23.20;47.20;;;;;;5055512;28;20028;-62
2022/06/10 08:25:15;;;;;;;1.65;0.80;;;23.20;47.30;;;;;;5054249;28;20031;-64
2022/06/10 08:27:41;;;;;;;1.05;0.70;;;23.30;47.30;;;;;;5055948;28;20621;-62
2022/06/10 08:30:12;;;;;;;0.90;0.63;;;23.20;47.30;;;;;;5055704;28;20024;-62
2022/06/10 08:32:37;;;;;;;1.83;0.75;;;23.30;47.40;;;;;;5057583;28;20047;-64
2022/06/10 08:35:04;;;;;;;0.47;0.43;;;23.30;47.40;;;;;;5052761;28;20024;-63
2022/06/10 08:37:30;;;;;;;0.98;0.65;;;23.30;47.40;;;;;;5056075;28;20031;-60
2022/06/10 08:39:56;;;;;;;0.85;0.60;;;23.30;47.40;;;;;;5054365;28;20036;-65
2022/06/10 08:42:41;;;;;;;0.82;0.63;;;23.30;47.40;;;;;;5052244;28;20047;-64
2022/06/10 08:45:29;;;;;;;0.65;0.60;;;23.30;47.40;;;;;;5052432;28;20107;-64
2022/06/10 08:48:21;;;;;;;1.17;0.60;;;23.30;47.40;;;;;;5054366;28;20016;-64
2022/06/10 08:51:01;;;;;;;0.68;0.50;;;23.30;47.50;;;;;;5052875;28;20032;-60
2022/06/10 08:53:44;;;;;;;;;;;23.30;47.40;;;;;;5053012;28;20050;-60
2022/06/10 08:56:34;;;;;;;0.73;0.50;;;23.30;47.50;;;;;;5053007;28;19926;-64
2022/06/10 08:59:11;;;;;;;1.35;0.70;;;23.30;47.50;;;;;;5056018;28;20112;-64
2022/06/10 09:02:09;;;;;;;1.05;0.60;;;23.30;47.50;;;;;;5054099;28;20803;-65
2022/06/10 09:04:53;;;;;;;1.48;0.70;;;23.30;47.50;;;;;;5052513;28;20749;-63
2022/06/10 09:07:33;;;;;;;1.02;0.60;;;23.30;47.50;;;;;;5052448;28;20382;-61
2022/06/10 09:10:02;;;;;;;1.15;0.60;;;23.30;47.50;;;;;;5052460;28;20033;-62
2022/06/10 09:12:55;;;;;;;1.50;0.68;;;23.30;48.00;;;;;;5056473;28;20024;-64
2022/06/10 09:15:23;;;;;;;0.73;0.60;;;23.30;47.50;;;;;;5054464;28;20150;-64
2022/06/10 09:17:57;;;;;;;1.45;0.63;;;23.30;47.50;;;;;;5056643;28;20028;-62
2022/06/10 09:20:25;;;;;;;0.80;0.60;;;23.30;47.50;;;;;;5055999;28;20032;-64
2022/06/10 09:23:04;;;;;;;0.65;0.57;;;23.30;47.50;;;;;;5055546;28;20040;-62
2022/06/10 09:25:39;;;;;;;0.98;0.55;;;23.30;47.50;;;;;;5054978;28;20040;-63
2022/06/10 09:28:05;;;;;;;1.42;0.60;;;23.30;47.50;;;;;;5056807;28;20032;-62
2022/06/10 09:30:40;;;;;;;1.65;0.90;;;23.40;47.60;;;;;;5053053;28;20039;-63
2022/06/10 09:33:14;;;;;;;0.68;0.50;;;23.30;47.60;;;;;;5057314;28;20664;-62
2022/06/10 09:35:57;;;;;;;0.60;0.60;;;23.40;47.60;;;;;;5052653;28;20059;-62
2022/06/10 09:38:48;;;;;;;0.60;0.50;;;23.40;47.60;;;;;;5052472;28;20491;-64
2022/06/10 09:41:35;;;;;;;1.05;0.60;;;23.40;47.60;;;;;;5056027;28;20024;-64
2022/06/10 09:44:24;;;;;;;0.88;0.60;;;23.40;47.60;;;;;;5054041;28;20060;-64
2022/06/10 09:47:07;;;;;;;0.82;0.60;;;23.40;47.60;;;;;;5057595;28;20499;-63
2022/06/10 09:49:38;;;;;;;0.63;0.50;;;23.40;47.60;;;;;;5057639;28;20116;-61
2022/06/10 09:52:11;;;;;;;1.48;0.80;;;23.40;47.60;;;;;;5056536;28;20036;-64
2022/06/10 09:54:58;;;;;;;1.33;0.60;;;23.40;47.60;;;;;;5056382;28;20476;-66
2022/06/10 09:57:43;;;;;;;0.55;0.50;;;23.40;47.60;;;;;;5059345;28;20741;-64
2022/06/10 10:00:21;;;;;;;0.90;0.65;;;23.40;47.60;;;;;;5058331;28;20021;-64
2022/06/10 10:03:03;;;;;;;0.80;0.60;;;23.40;47.60;;;;;;5060865;28;20123;-65
2022/06/10 10:05:47;;;;;;;1.00;0.60;;;23.40;47.60;;;;;;5060730;28;20115;-61
2022/06/10 10:08:28;;;;;;;0.77;0.55;;;23.40;47.60;;;;;;5058416;28;20041;-65
2022/06/10 10:11:05;;;;;;;0.98;0.60;;;23.40;47.60;;;;;;5060797;28;20043;-64
2022/06/10 10:13:46;;;;;;;0.65;0.50;;;23.40;47.60;;;;;;5058792;28;20114;-65
2022/06/10 10:16:42;;;;;;;1.02;0.60;;;23.40;47.60;;;;;;5060647;28;20024;-65
2022/06/10 10:19:20;;;;;;;0.68;0.52;;;23.40;47.70;;;;;;5059404;28;20107;-61
2022/06/10 10:21:49;;;;;;;1.35;0.55;;;23.40;47.70;;;;;;5059056;28;20028;-64
2022/06/10 10:24:18;;;;;;;0.85;0.57;;;23.40;47.70;;;;;;5058147;28;20147;-62
2022/06/10 10:26:45;;;;;;;1.30;0.68;;;23.40;47.70;;;;;;5061671;28;20048;-64
2022/06/10 10:29:23;;;;;;;0.70;0.50;;;23.40;47.70;;;;;;5057507;28;20169;-61
2022/06/10 10:32:03;;;;;;;0.70;0.60;;;23.40;47.70;;;;;;5059158;28;20140;-64
2022/06/10 10:34:36;;;;;;;0.60;0.60;;;23.40;47.70;;;;;;5057172;28;20032;-64
2022/06/10 10:37:19;;;;;;;0.50;0.50;;;23.40;47.70;;;;;;5057366;28;20032;-66
2022/06/10 10:39:51;;;;;;;1.02;0.60;;;23.40;47.80;;;;;;5056214;28;20447;-63
2022/06/10 10:42:21;;;;;;;0.70;0.60;;;23.40;47.70;;;;;;5060448;28;20054;-63
2022/06/10 10:45:00;;;;;;;1.40;0.70;;;23.40;47.70;;;;;;5058379;28;20372;-64
2022/06/10 10:47:26;;;;;;;1.08;0.70;;;23.40;47.70;;;;;;5058880;28;20029;-64
2022/06/10 10:49:56;;;;;;;0.93;0.60;;;23.40;47.70;;;;;;5057414;28;20028;-63
2022/06/10 10:52:28;;;;;;;0.68;0.55;;;23.40;47.70;;;;;;5059068;28;20032;-64
2022/06/10 10:54:57;;;;;;;0.65;0.50;;;23.40;47.70;;;;;;5053786;28;20139;-63
2022/06/10 10:57:31;;;;;;;1.20;0.90;;;23.50;47.80;;;;;;5057030;28;20102;-63
2022/06/10 11:00:09;;;;;;;0.63;0.52;;;23.40;47.70;;;;;;5056740;28;20145;-65
2022/06/10 11:02:38;;;;;;;1.13;0.60;;;23.50;47.80;;;;;;5058101;28;20388;-62
2022/06/10 11:05:19;;;;;;;1.10;0.60;;;23.40;47.80;;;;;;5055496;28;20030;-63
2022/06/10 11:07:46;;;;;;;0.57;0.57;;;23.50;47.80;;;;;;5055394;28;20693;-64
2022/06/10 11:10:22;;;;;;;0.98;0.60;;;23.50;47.80;;;;;;5055988;28;20032;-62
2022/06/10 11:12:48;;;;;;;0.90;0.70;;;23.50;47.80;;;;;;5057573;28;20036;-64
2022/06/10 11:15:28;;;;;;;0.60;0.60;;;23.50;47.80;;;;;;5055386;28;20036;-61
2022/06/10 11:17:56;;;;;;;0.85;0.63;;;23.50;47.80;;;;;;5055766;28;21323;-65
2022/06/10 11:20:28;;;;;;;0.75;0.60;;;23.50;47.80;;;;;;5056892;28;20507;-62
2022/06/10 11:23:24;;;;;;;0.88;0.70;;;23.50;47.80;;;;;;5053527;28;20102;-66
2022/06/10 11:26:12;;;;;;;0.88;0.60;;;23.50;47.80;;;;;;5054944;28;20031;-64
2022/06/10 11:28:40;;;;;;;0.93;0.60;;;23.50;47.80;;;;;;5054281;28;20051;-66
2022/06/10 11:31:28;;;;;;;1.42;0.75;;;23.50;47.80;;;;;;5054996;28;20040;-64
2022/06/10 11:33:58;;;;;;;0.98;0.70;;;23.50;47.80;;;;;;5055806;28;20025;-61
2022/06/10 11:36:33;;;;;;;0.82;0.60;;;23.50;47.80;;;;;;5055291;28;20484;-61
2022/06/10 11:39:31;;;;;;;1.13;0.55;;;23.50;47.80;;;;;;5052802;28;20215;-64
2022/06/10 11:42:15;;;;;;;0.80;0.60;;;23.50;47.80;;;;;;5054850;28;20504;-62
2022/06/10 11:45:04;;;;;;;1.10;0.73;;;23.50;47.80;;;;;;5055514;28;20047;-64
2022/06/10 11:48:06;;;;;;;0.70;0.50;;;23.50;47.80;;;;;;5056699;28;20547;-66
2022/06/10 11:50:49;;;;;;;1.15;0.70;;;23.50;47.90;;;;;;5039679;28;20737;-66
2022/06/10 11:53:24;;;;;;;1.23;0.68;;;23.60;47.90;;;;;;5053727;28;20113;-64
2022/06/10 11:59:42;;;;;;;1.00;0.68;;;23.60;47.90;;;;;;5056110;28;20060;-64
2022/06/10 12:01:31;;;;;;;0.85;0.70;;;23.60;47.90;;;;;;5055437;28;20075;-66
2022/06/10 12:04:08;;;;;;;0.95;0.65;;;23.60;48.00;;;;;;5055323;28;20050;-63
2022/06/10 12:06:40;;;;;;;0.60;0.60;;;23.60;47.90;;;;;;5056860;28;20036;-61
2022/06/10 12:09:20;;;;;;;1.05;0.60;;;23.50;47.90;;;;;;5055542;28;20096;-65
2022/06/10 12:12:04;;;;;;;1.00;0.60;;;23.60;48.00;;;;;;5055843;28;20720;-62
2022/06/10 12:14:37;;;;;;;0.90;0.60;;;23.60;48.00;;;;;;5053522;28;24227;-62
2022/06/10 12:17:10;;;;;;;0.68;0.55;;;23.60;48.50;;;;;;5056267;28;20210;-64
2022/06/10 12:19:49;;;;;;;0.70;0.60;;;23.60;48.00;;;;;;5053928;28;20049;-62
2022/06/10 12:22:15;;;;;;;0.60;0.50;;;23.60;48.00;;;;;;5055279;28;20028;-65
2022/06/10 12:24:44;;;;;;;0.68;0.50;;;23.60;48.00;;;;;;5055060;28;20874;-64
2022/06/10 12:27:17;;;;;;;1.30;0.70;;;23.60;48.00;;;;;;5055310;28;20043;-62
2022/06/10 12:29:50;;;;;;;1.45;0.80;;;23.60;48.00;;;;;;5052713;28;20037;-65
2022/06/10 12:32:56;;;;;;;0.70;0.70;;;23.60;48.00;;;;;;5053120;28;20260;-63
2022/06/10 12:35:26;;;;;;;0.98;0.60;;;23.60;48.00;;;;;;5056420;28;20498;-64
2022/06/10 12:38:14;;;;;;;0.88;0.60;;;23.60;48.00;;;;;;5057351;28;20112;-61
2022/06/10 12:40:53;;;;;;;0.70;0.55;;;23.60;48.00;;;;;;5056572;28;20028;-65
2022/06/10 12:43:34;;;;;;;0.82;0.70;;;23.60;48.00;;;;;;5058196;28;20039;-65
2022/06/10 12:46:04;;;;;;;0.82;0.60;;;23.60;48.00;;;;;;5057270;28;20369;-64
2022/06/10 12:48:46;;;;;;;0.80;0.70;;;23.60;48.00;;;;;;5057249;28;20036;-67
2022/06/10 12:51:12;;;;;;;0.60;0.60;;;23.60;48.00;;;;;;5057228;28;20040;-66
2022/06/10 12:53:56;;;;;;;0.70;0.70;;;23.60;48.00;;;;;;5053140;28;20036;-64
2022/06/10 12:56:26;;;;;;;0.93;0.60;;;23.60;48.00;;;;;;5056721;28;20467;-62
2022/06/10 12:59:05;;;;;;;1.15;0.60;;;23.60;48.00;;;;;;5055332;28;20038;-66
2022/06/10 13:01:30;;;;;;;0.73;0.55;;;23.60;48.00;;;;;;5057065;28;20115;-62
2022/06/10 13:03:59;;;;;;;0.50;0.50;;;23.60;48.00;;;;;;5054878;28;20039;-64
2022/06/10 13:06:29;;;;;;;0.93;0.70;;;23.60;48.00;;;;;;5058724;28;21242;-61
2022/06/10 13:09:05;;;;;;;0.73;0.50;;;23.70;48.00;;;;;;5048739;28;20139;-61
2022/06/10 13:11:45;;;;;;;1.23;0.65;;;23.60;48.00;;;;;;5056916;28;20515;-64
2022/06/10 13:14:22;;;;;;;0.88;0.70;;;23.70;48.00;;;;;;5055626;28;20118;-66
2022/06/10 13:16:57;;;;;;;0.50;0.50;;;23.60;48.00;;;;;;5057983;28;20024;-64
2022/06/10 13:19:29;;;;;;;0.60;0.60;;;23.60;48.00;;;;;;5057339;28;20020;-64
2022/06/10 13:21:55;;;;;;;0.60;0.60;;;23.60;48.00;;;;;;5057583;28;20024;-62
2022/06/10 13:24:21;;;;;;;0.68;0.50;;;23.60;48.00;;;;;;5057282;28;20056;-64
2022/06/10 13:26:47;;;;;;;0.93;0.57;;;23.70;48.00;;;;;;5060590;28;20165;-67